Time;durP1;ratioP1;P1;durP2;ratioP2;P2;SDS_P1;SDS_P2;PMS_P1;PMS_P2;Temp;Humidity;BMP_temperature;BMP_pressure;BME280_temperature;BME280_humidity;BME280_pressure;Samples;Min_cycle;Max_cycle;Signal;HPM_P1;HPM_P2
2023/03/04 00:00:07;;;;;;;;;;;;;;;27.32;24.66;100856.22;5076099;28;1041;-28
2023/03/04 00:02:35;;;;;;;;;;;;;;;27.60;24.46;100847.53;5076486;28;1146;-29
2023/03/04 00:05:02;;;;;;;;;;;;;;;27.69;23.91;100851.00;5070484;28;1071;-31
2023/03/04 00:07:28;;;;;;;;;;;;;;;27.51;24.18;100849.44;5061031;28;1988;-28
2023/03/04 00:09:53;;;;;;;;;;;;;;;27.43;24.45;100860.31;5076594;28;1435;-28
2023/03/04 00:12:19;;;;;;;;;;;;;;;27.41;24.92;100859.66;5070825;28;1182;-27
2023/03/04 00:14:44;;;;;;;;;;;;;;;27.47;24.60;100858.97;5075402;28;1106;-30
2023/03/04 00:17:10;;;;;;;;;;;;;;;27.73;23.89;100857.72;5076805;28;1043;-28
2023/03/04 00:19:36;;;;;;;;;;;;;;;27.54;24.45;100866.31;5087683;28;1019;-26
2023/03/04 00:22:02;;;;;;;;;;;;;;;27.16;25.25;100865.28;5076195;28;1142;-28
2023/03/04 00:24:28;;;;;;;;;;;;;;;27.73;24.50;100873.09;5076572;28;1216;-27
2023/03/04 00:26:54;;;;;;;;;;;;;;;27.56;24.60;100864.28;5072667;28;1976;-26
2023/03/04 00:29:20;;;;;;;;;;;;;;;27.42;24.63;100864.06;5076938;28;1043;-29
2023/03/04 00:31:46;;;;;;;;;;;;;;;27.60;24.27;100863.72;5076451;28;1023;-27
2023/03/04 00:34:12;;;;;;;;;;;;;;;27.51;24.72;100871.06;5087063;28;1093;-29
2023/03/04 00:36:37;;;;;;;;;;;;;;;27.68;24.56;100873.63;5072707;28;1329;-30
2023/03/04 00:39:03;;;;;;;;;;;;;;;27.72;24.26;100871.41;5075604;28;1082;-28
2023/03/04 00:41:28;;;;;;;;;;;;;;;27.53;24.26;100864.66;5057396;28;843;-28
2023/03/04 00:43:54;;;;;;;;;;;;;;;27.74;24.28;100866.69;5076108;28;1054;-27
2023/03/04 00:46:19;;;;;;;;;;;;;;;27.58;23.84;100857.66;5079613;28;1975;-26
2023/03/04 00:48:45;;;;;;;;;;;;;;;27.30;25.04;100860.09;5083391;28;1119;-26
2023/03/04 00:51:11;;;;;;;;;;;;;;;27.63;24.39;100857.97;5056294;28;1123;-28
2023/03/04 00:53:36;;;;;;;;;;;;;;;27.78;24.43;100845.53;5081919;28;1090;-27
2023/03/04 00:56:02;;;;;;;;;;;;;;;27.53;24.27;100853.84;5075607;28;1034;-27
2023/03/04 00:58:27;;;;;;;;;;;;;;;27.78;24.23;100849.06;5075730;28;1050;-28
2023/03/04 01:00:53;;;;;;;;;;;;;;;27.36;24.83;100848.59;5075579;28;1148;-28
2023/03/04 01:03:19;;;;;;;;;;;;;;;27.58;24.60;100849.56;5075791;28;1233;-26
2023/03/04 01:05:44;;;;;;;;;;;;;;;27.38;25.01;100839.28;5077551;28;863;-27
2023/03/04 01:08:10;;;;;;;;;;;;;;;27.54;24.93;100848.25;5075814;28;1980;-26
2023/03/04 01:10:35;;;;;;;;;;;;;;;27.67;24.22;100850.31;5057359;28;1154;-26
2023/03/04 01:13:01;;;;;;;;;;;;;;;27.60;24.34;100842.13;5075595;28;1058;-29
2023/03/04 01:15:26;;;;;;;;;;;;;;;27.29;25.20;100848.47;5075993;28;1189;-30
2023/03/04 01:17:52;;;;;;;;;;;;;;;27.36;24.81;100849.41;5084201;28;1062;-28
2023/03/04 01:20:18;;;;;;;;;;;;;;;27.41;24.77;100848.03;5075435;28;1154;-29
2023/03/04 01:22:43;;;;;;;;;;;;;;;27.71;24.08;100846.25;5086113;28;1166;-30
2023/03/04 01:25:09;;;;;;;;;;;;;;;27.61;24.52;100838.38;5075440;28;1109;-27
2023/03/04 01:27:34;;;;;;;;;;;;;;;27.29;25.26;100837.69;5075828;28;1909;-31
2023/03/04 01:30:00;;;;;;;;;;;;;;;27.78;24.60;100835.53;5077977;28;954;-26
2023/03/04 01:32:27;;;;;;;;;;;;;;;27.56;24.64;100834.56;5057676;28;1154;-29
2023/03/04 01:34:52;;;;;;;;;;;;;;;27.65;24.46;100833.44;5078928;28;1118;-29
2023/03/04 01:37:18;;;;;;;;;;;;;;;27.39;24.83;100837.41;5061553;28;1075;-26
2023/03/04 01:39:45;;;;;;;;;;;;;;;27.44;25.06;100826.91;5061285;28;1214;-26
2023/03/04 01:42:19;;;;;;;;;;;;;;;27.50;24.73;100828.03;5070743;28;1662;-29
2023/03/04 01:44:44;;;;;;;;;;;;;;;27.56;25.02;100823.75;5079590;28;1119;-26
2023/03/04 01:47:10;;;;;;;;;;;;;;;27.43;25.21;100821.66;5060868;28;1965;-31
2023/03/04 01:49:35;;;;;;;;;;;;;;;27.60;24.52;100820.50;5061090;28;1063;-31
2023/03/04 01:52:01;;;;;;;;;;;;;;;27.70;24.20;100811.28;5078833;28;1038;-29
2023/03/04 01:54:27;;;;;;;;;;;;;;;27.38;25.33;100812.25;5070251;28;904;-27
2023/03/04 01:56:52;;;;;;;;;;;;;;;27.35;25.24;100814.47;5077536;28;1143;-27
2023/03/04 01:59:19;;;;;;;;;;;;;;;27.30;25.09;100804.22;5061132;28;1108;-26
2023/03/04 02:01:46;;;;;;;;;;;;;;;27.46;24.84;100808.63;5072888;28;1058;-30
2023/03/04 02:04:12;;;;;;;;;;;;;;;27.48;24.71;100803.88;5053171;28;1225;-26
2023/03/04 02:06:37;;;;;;;;;;;;;;;27.37;24.87;100807.03;5071064;28;1967;-26
2023/03/04 02:09:03;;;;;;;;;;;;;;;27.30;25.23;100803.38;5079083;28;1125;-27
2023/03/04 02:11:29;;;;;;;;;;;;;;;27.36;24.99;100806.19;5078282;28;1135;-29
2023/03/04 02:13:54;;;;;;;;;;;;;;;27.45;25.02;100806.97;5061046;28;1015;-27
2023/03/04 02:16:20;;;;;;;;;;;;;;;27.59;24.43;100807.16;5060680;28;1222;-27
2023/03/04 02:18:46;;;;;;;;;;;;;;;27.41;24.77;100805.63;5082427;28;953;-27
2023/03/04 02:21:14;;;;;;;;;;;;;;;27.50;25.12;100801.84;5081215;28;1071;-27
2023/03/04 02:23:40;;;;;;;;;;;;;;;27.34;24.99;100802.81;5074000;28;1213;-26
2023/03/04 02:26:11;;;;;;;;;;;;;;;27.50;25.09;100809.09;5059038;28;1966;-28
2023/03/04 02:28:37;;;;;;;;;;;;;;;27.65;24.33;100790.22;5060289;28;1471;-27
2023/03/04 02:31:03;;;;;;;;;;;;;;;27.46;24.87;100794.31;5071886;28;1075;-29
2023/03/04 02:33:29;;;;;;;;;;;;;;;27.26;25.17;100795.66;5060557;28;1059;-30
2023/03/04 02:35:54;;;;;;;;;;;;;;;27.51;24.82;100795.41;5060515;28;1147;-26
2023/03/04 02:38:20;;;;;;;;;;;;;;;27.34;24.99;100796.59;5060312;28;2014;-27
2023/03/04 02:40:47;;;;;;;;;;;;;;;27.42;24.89;100803.78;5059825;28;1530;-29
2023/03/04 02:43:13;;;;;;;;;;;;;;;27.35;25.14;100803.69;5051591;28;1202;-30
2023/03/04 02:45:40;;;;;;;;;;;;;;;27.37;25.12;100804.34;5047350;28;1926;-27
2023/03/04 02:48:07;;;;;;;;;;;;;;;27.44;24.93;100807.16;5079220;28;1914;-27
2023/03/04 02:50:34;;;;;;;;;;;;;;;27.64;24.59;100815.56;5082709;28;1150;-29
2023/03/04 02:52:59;;;;;;;;;;;;;;;27.51;25.07;100811.63;5072704;28;1020;-26
2023/03/04 02:55:25;;;;;;;;;;;;;;;27.59;24.93;100813.41;5071417;28;1392;-27
2023/03/04 02:57:52;;;;;;;;;;;;;;;27.55;24.30;100819.34;5077811;28;1035;-29
2023/03/04 03:00:17;;;;;;;;;;;;;;;27.41;25.34;100827.25;5077992;28;1137;-33
2023/03/04 03:02:43;;;;;;;;;;;;;;;27.39;25.42;100821.22;5059096;28;1066;-30
2023/03/04 03:05:09;;;;;;;;;;;;;;;27.32;25.35;100831.06;5077956;28;1133;-28
2023/03/04 03:07:37;;;;;;;;;;;;;;;27.66;24.65;100828.88;5065743;28;1996;-29
2023/03/04 03:10:03;;;;;;;;;;;;;;;27.43;24.61;100814.41;5059255;28;1395;-28
2023/03/04 03:12:29;;;;;;;;;;;;;;;27.39;25.30;100821.22;5059092;28;1141;-26
2023/03/04 03:14:55;;;;;;;;;;;;;;;27.51;25.27;100826.97;5077747;28;1086;-27
2023/03/04 03:17:22;;;;;;;;;;;;;;;27.56;25.26;100821.06;5078388;28;1213;-27
2023/03/04 03:19:47;;;;;;;;;;;;;;;27.48;24.79;100825.50;5077724;28;1023;-31
2023/03/04 03:22:14;;;;;;;;;;;;;;;27.65;24.58;100832.59;5087869;28;1082;-27
2023/03/04 03:24:40;;;;;;;;;;;;;;;27.54;24.85;100831.19;5045872;28;1149;-30
2023/03/04 03:27:06;;;;;;;;;;;;;;;27.35;25.17;100828.84;5076881;28;1906;-30
2023/03/04 03:29:32;;;;;;;;;;;;;;;27.53;25.09;100826.84;5061462;28;1167;-27
2023/03/04 03:31:57;;;;;;;;;;;;;;;27.30;25.54;100806.94;5064779;28;1877;-28
2023/03/04 03:34:23;;;;;;;;;;;;;;;27.57;24.77;100826.28;5076912;28;1118;-29
2023/03/04 03:36:49;;;;;;;;;;;;;;;27.54;24.60;100823.09;5059241;28;1150;-27
2023/03/04 03:39:14;;;;;;;;;;;;;;;27.37;25.13;100826.81;5058944;28;1182;-29
2023/03/04 03:41:40;;;;;;;;;;;;;;;27.52;25.29;100823.28;5078634;28;1084;-30
2023/03/04 03:44:06;;;;;;;;;;;;;;;27.41;25.07;100818.31;5076854;28;1062;-31
2023/03/04 03:46:31;;;;;;;;;;;;;;;27.49;24.78;100820.94;5076527;28;1914;-26
2023/03/04 03:48:57;;;;;;;;;;;;;;;27.74;24.43;100820.72;5077024;28;1023;-31
2023/03/04 03:51:22;;;;;;;;;;;;;;;27.49;25.33;100826.34;5076952;28;1138;-29
2023/03/04 03:53:48;;;;;;;;;;;;;;;27.42;25.45;100820.00;5079010;28;1062;-31
2023/03/04 03:56:14;;;;;;;;;;;;;;;27.26;25.61;100819.09;5082227;28;901;-27
2023/03/04 03:58:39;;;;;;;;;;;;;;;27.21;25.34;100821.53;5076486;28;1097;-27
2023/03/04 04:01:05;;;;;;;;;;;;;;;27.68;24.66;100818.72;5076246;28;1034;-27
2023/03/04 04:03:30;;;;;;;;;;;;;;;27.59;24.51;100817.97;5076701;28;1033;-29
2023/03/04 04:05:56;;;;;;;;;;;;;;;27.54;25.07;100823.09;5078983;28;1122;-29
2023/03/04 04:08:21;;;;;;;;;;;;;;;27.58;25.31;100816.28;5076127;28;1981;-26
2023/03/04 04:10:47;;;;;;;;;;;;;;;27.71;25.08;100826.50;5076399;28;1142;-27
2023/03/04 04:13:12;;;;;;;;;;;;;;;27.61;24.77;100830.25;5076522;28;1035;-29
2023/03/04 04:15:38;;;;;;;;;;;;;;;26.77;23.18;100824.72;5075768;28;1055;-26
2023/03/04 04:18:04;;;;;;;;;;;;;;;24.19;26.78;100825.72;5069642;28;1281;-26
2023/03/04 04:20:30;;;;;;;;;;;;;;;24.09;26.73;100823.13;5074273;28;1504;-25
2023/03/04 04:22:55;;;;;;;;;;;;;;;23.58;26.92;100831.91;5081036;28;1130;-26
2023/03/04 04:25:21;;;;;;;;;;;;;;;23.57;26.76;100832.06;5090676;28;1157;-25
2023/03/04 04:27:46;;;;;;;;;;;;;;;22.90;27.94;100820.75;5073095;28;1914;-26
2023/03/04 04:30:12;;;;;;;;;;;;;;;22.82;27.84;100826.03;5087659;28;1068;-26
2023/03/04 04:32:38;;;;;;;;;;;;;;;25.49;25.27;100836.22;5075781;28;1015;-26
2023/03/04 04:35:03;;;;;;;;;;;;;;;25.15;24.36;100829.19;5075515;28;1114;-26
2023/03/04 04:37:29;;;;;;;;;;;;;;;24.40;25.54;100837.06;5086839;28;1102;-25
2023/03/04 04:39:55;;;;;;;;;;;;;;;25.74;23.90;100835.41;5078196;28;1177;-26
2023/03/04 04:42:20;;;;;;;;;;;;;;;25.91;23.54;100831.63;5075951;28;1067;-26
2023/03/04 04:44:46;;;;;;;;;;;;;;;26.22;23.45;100835.41;5093724;28;1127;-25
2023/03/04 04:47:12;;;;;;;;;;;;;;;26.47;23.57;100843.44;5095419;28;1964;-25
2023/03/04 04:49:37;;;;;;;;;;;;;;;26.69;23.07;100851.75;5095861;28;1174;-27
2023/03/04 04:52:03;;;;;;;;;;;;;;;26.03;23.27;100850.97;5085498;28;1231;-27
2023/03/04 04:54:28;;;;;;;;;;;;;;;24.65;25.56;100861.34;5088694;28;1077;-29
2023/03/04 04:56:54;;;;;;;;;;;;;;;25.44;24.81;100866.34;5086248;28;1084;-26
2023/03/04 04:59:20;;;;;;;;;;;;;;;26.12;23.84;100870.66;5090893;28;1325;-27
2023/03/04 05:01:45;;;;;;;;;;;;;;;26.51;23.29;100863.63;5085333;28;1001;-26
2023/03/04 05:04:11;;;;;;;;;;;;;;;26.69;23.42;100867.09;5074811;28;1076;-24
2023/03/04 05:06:36;;;;;;;;;;;;;;;26.22;24.11;100869.63;5080121;28;1910;-26
2023/03/04 05:09:03;;;;;;;;;;;;;;;26.40;24.00;100882.91;5085173;28;1121;-27
2023/03/04 05:11:28;;;;;;;;;;;;;;;25.28;25.47;100888.75;5079617;28;1065;-26
2023/03/04 05:13:54;;;;;;;;;;;;;;;26.45;23.77;100883.22;5079920;28;1074;-27
2023/03/04 05:16:19;;;;;;;;;;;;;;;26.86;23.67;100887.53;5079122;28;1209;-26
2023/03/04 05:18:45;;;;;;;;;;;;;;;27.45;22.81;100887.16;5085043;28;1213;-28
2023/03/04 05:21:11;;;;;;;;;;;;;;;27.99;22.61;100891.56;5083421;28;1057;-27
2023/03/04 05:23:37;;;;;;;;;;;;;;;26.76;23.39;100886.94;5075094;28;1142;-30
2023/03/04 05:26:03;;;;;;;;;;;;;;;25.59;25.31;100898.00;5078715;28;1043;-28
2023/03/04 05:28:28;;;;;;;;;;;;;;;27.31;23.32;100888.81;5079243;28;1905;-26
2023/03/04 05:30:54;;;;;;;;;;;;;;;26.28;24.47;100901.28;5084786;28;1074;-24
2023/03/04 05:33:20;;;;;;;;;;;;;;;25.95;25.02;100904.91;5087157;28;1100;-27
2023/03/04 05:35:47;;;;;;;;;;;;;;;26.48;24.35;100909.84;5079178;28;1139;-26
2023/03/04 05:38:12;;;;;;;;;;;;;;;26.95;23.77;100906.41;5078895;28;1105;-28
2023/03/04 05:40:38;;;;;;;;;;;;;;;27.10;23.35;100898.41;5079332;28;1132;-27
2023/03/04 05:43:04;;;;;;;;;;;;;;;25.92;24.88;100899.88;5067696;28;1112;-29
2023/03/04 05:45:29;;;;;;;;;;;;;;;26.06;25.01;100902.88;5058489;28;1210;-26
2023/03/04 05:47:55;;;;;;;;;;;;;;;26.32;24.67;100902.63;5058831;28;1902;-28
2023/03/04 05:50:21;;;;;;;;;;;;;;;27.04;23.44;100893.72;5058700;28;1226;-26
2023/03/04 05:52:46;;;;;;;;;;;;;;;26.84;24.04;100892.28;5066243;28;1040;-28
2023/03/04 05:55:12;;;;;;;;;;;;;;;26.62;24.30;100899.31;5084761;28;1071;-28
2023/03/04 05:57:37;;;;;;;;;;;;;;;26.61;24.54;100901.16;5078683;28;1058;-29
2023/03/04 06:00:04;;;;;;;;;;;;;;;26.43;26.13;100896.03;5078724;28;1078;-26
2023/03/04 06:02:38;;;;;;;;;;;;;;;26.06;26.42;100903.69;5072294;28;1198;-25
2023/03/04 06:05:03;;;;;;;;;;;;;;;27.18;24.94;100900.19;5058699;28;1266;-25
2023/03/04 06:07:29;;;;;;;;;;;;;;;28.05;24.19;100898.09;5059591;28;1906;-29
2023/03/04 06:09:55;;;;;;;;;;;;;;;28.69;23.25;100906.69;5058365;28;1174;-26
2023/03/04 06:12:20;;;;;;;;;;;;;;;27.81;23.91;100908.13;5058863;28;1257;-28
2023/03/04 06:14:46;;;;;;;;;;;;;;;26.83;25.28;100908.66;5069018;28;1143;-27
2023/03/04 06:17:11;;;;;;;;;;;;;;;26.15;26.10;100902.69;5060505;28;1241;-27
2023/03/04 06:19:37;;;;;;;;;;;;;;;26.18;26.56;100904.16;5043675;28;1302;-27
2023/03/04 06:22:03;;;;;;;;;;;;;;;26.16;26.65;100903.50;5061694;28;1305;-27
2023/03/04 06:24:28;;;;;;;;;;;;;;;26.33;26.57;100903.47;5062610;28;1246;-28
2023/03/04 06:26:54;;;;;;;;;;;;;;;26.63;26.01;100903.69;5078622;28;1977;-26
2023/03/04 06:29:19;;;;;;;;;;;;;;;26.62;26.08;100902.03;5077948;28;1141;-27
2023/03/04 06:31:45;;;;;;;;;;;;;;;26.76;25.86;100906.66;5087328;28;1015;-27
2023/03/04 06:34:11;;;;;;;;;;;;;;;26.78;25.67;100907.34;5080725;28;1002;-30
2023/03/04 06:36:36;;;;;;;;;;;;;;;25.91;26.53;100907.09;5078310;28;1087;-25
2023/03/04 06:39:02;;;;;;;;;;;;;;;25.81;26.80;100906.44;5077995;28;1166;-26
2023/03/04 06:41:28;;;;;;;;;;;;;;;27.24;25.29;100894.09;5078460;28;1174;-27
2023/03/04 06:43:54;;;;;;;;;;;;;;;27.39;25.11;100889.56;5081931;28;1190;-25
2023/03/04 06:46:19;;;;;;;;;;;;;;;27.47;24.56;100894.09;5077445;28;1906;-27
2023/03/04 06:48:45;;;;;;;;;;;;;;;27.80;24.06;100892.97;5067587;28;1111;-27
2023/03/04 06:51:10;;;;;;;;;;;;;;;27.13;25.01;100889.94;5076986;28;1063;-29
2023/03/04 06:53:36;;;;;;;;;;;;;;;27.12;25.13;100886.41;5078017;28;1106;-25
2023/03/04 06:56:02;;;;;;;;;;;;;;;27.06;25.32;100878.19;5084983;28;1106;-27
2023/03/04 06:58:27;;;;;;;;;;;;;;;27.32;24.97;100880.53;5077885;28;1155;-29
2023/03/04 07:00:53;;;;;;;;;;;;;;;27.32;24.89;100871.56;5077510;28;1059;-27
2023/03/04 07:03:18;;;;;;;;;;;;;;;27.94;24.56;100874.25;5077845;28;1099;-30
2023/03/04 07:05:44;;;;;;;;;;;;;;;29.29;22.58;100867.72;5077715;28;1197;-29
2023/03/04 07:08:09;;;;;;;;;;;;;;;29.51;22.04;100869.56;5081954;28;1914;-26
2023/03/04 07:10:35;;;;;;;;;;;;;;;28.40;23.17;100859.69;5082875;28;1071;-28
2023/03/04 07:13:01;;;;;;;;;;;;;;;28.60;23.27;100853.66;5085643;28;1037;-26
2023/03/04 07:15:28;;;;;;;;;;;;;;;28.18;23.66;100856.88;5077731;28;1185;-28
2023/03/04 07:17:54;;;;;;;;;;;;;;;28.46;23.44;100850.81;5077907;28;1054;-26
2023/03/04 07:20:20;;;;;;;;;;;;;;;28.84;22.82;100859.78;5074802;28;1051;-29
2023/03/04 07:22:45;;;;;;;;;;;;;;;29.26;22.37;100867.28;5072954;28;1202;-28
2023/03/04 07:25:11;;;;;;;;;;;;;;;29.36;22.03;100862.38;5077294;28;1024;-28
2023/03/04 07:27:37;;;;;;;;;;;;;;;29.09;22.43;100859.41;5076950;28;1991;-28
2023/03/04 07:30:06;;;;;;;;;;;;;;;28.88;22.68;100852.94;5077324;28;878;-27
2023/03/04 07:32:33;;;;;;;;;;;;;;;28.68;22.85;100853.56;5087791;28;1204;-25
2023/03/04 07:34:58;;;;;;;;;;;;;;;27.13;24.49;100847.59;5064544;28;1146;-29
2023/03/04 07:37:24;;;;;;;;;;;;;;;28.02;23.96;100844.41;5071296;28;1178;-28
2023/03/04 07:39:50;;;;;;;;;;;;;;;28.10;23.62;100846.16;5061238;28;1141;-30
2023/03/04 07:42:15;;;;;;;;;;;;;;;27.60;23.76;100843.97;5056424;28;1235;-28
2023/03/04 07:44:50;;;;;;;;;;;;;;;27.52;24.18;100850.31;5049551;28;1286;-30
2023/03/04 07:47:15;;;;;;;;;;;;;;;27.14;24.65;100843.03;5058493;28;1976;-26
2023/03/04 07:49:41;;;;;;;;;;;;;;;27.51;24.48;100846.75;5081811;28;1122;-26
2023/03/04 07:52:07;;;;;;;;;;;;;;;27.46;24.64;100849.16;5076213;28;1119;-28
2023/03/04 07:54:33;;;;;;;;;;;;;;;27.84;24.00;100848.31;5076508;28;1119;-28
2023/03/04 07:56:58;;;;;;;;;;;;;;;28.09;23.62;100850.72;5066141;28;895;-27
2023/03/04 07:59:24;;;;;;;;;;;;;;;28.19;23.58;100849.63;5072691;28;1123;-27
2023/03/04 08:01:49;;;;;;;;;;;;;;;29.18;22.23;100851.97;5062733;28;1210;-26
2023/03/04 08:04:15;;;;;;;;;;;;;;;28.77;22.78;100851.56;5077028;28;1218;-26
2023/03/04 08:06:41;;;;;;;;;;;;;;;28.69;22.81;100843.56;5071106;28;1905;-27
2023/03/04 08:09:06;;;;;;;;;;;;;;;27.21;24.50;100843.16;5057671;28;1293;-29
2023/03/04 08:11:32;;;;;;;;;;;;;;;27.43;24.76;100844.13;5073674;28;1130;-25
2023/03/04 08:13:58;;;;;;;;;;;;;;;28.16;23.50;100841.88;5076197;28;1078;-26
2023/03/04 08:16:24;;;;;;;;;;;;;;;27.59;24.18;100842.28;5076904;28;1146;-25
2023/03/04 08:18:50;;;;;;;;;;;;;;;26.50;25.66;100840.38;5076306;28;1063;-27
2023/03/04 08:21:18;;;;;;;;;;;;;;;27.96;23.80;100837.03;5086022;28;1158;-23
2023/03/04 08:23:43;;;;;;;;;;;;;;;28.55;23.25;100843.44;5068600;28;1240;-25
2023/03/04 08:26:10;;;;;;;;;;;;;;;27.25;24.40;100828.25;5076622;28;1061;-24
2023/03/04 08:28:36;;;;;;;;;;;;;;;26.58;25.64;100826.00;5075979;28;1975;-29
2023/03/04 08:31:02;;;;;;;;;;;;;;;28.15;23.81;100832.06;5060563;28;1064;-26
2023/03/04 08:33:27;;;;;;;;;;;;;;;28.37;23.42;100833.00;5082462;28;890;-25
2023/03/04 08:35:53;;;;;;;;;;;;;;;29.00;22.50;100838.91;5075502;28;1113;-25
2023/03/04 08:38:18;;;;;;;;;;;;;;;28.76;22.94;100830.13;5076029;28;1240;-23
2023/03/04 08:40:44;;;;;;;;;;;;;;;28.39;22.93;100838.25;5075695;28;1054;-24
2023/03/04 08:43:09;;;;;;;;;;;;;;;28.44;23.16;100838.50;5075264;28;992;-23
2023/03/04 08:45:35;;;;;;;;;;;;;;;27.56;24.20;100834.56;5076133;28;928;-29
2023/03/04 08:48:01;;;;;;;;;;;;;;;27.71;23.93;100830.03;5075963;28;1906;-24
2023/03/04 08:50:26;;;;;;;;;;;;;;;29.07;22.70;100837.09;5075859;28;1059;-26
2023/03/04 08:52:52;;;;;;;;;;;;;;;29.07;22.23;100827.13;5076131;28;1070;-26
2023/03/04 08:55:17;;;;;;;;;;;;;;;29.98;21.50;100829.22;5075425;28;1505;-26
2023/03/04 08:57:43;;;;;;;;;;;;;;;29.21;21.90;100821.81;5074200;28;1416;-27
2023/03/04 09:00:09;;;;;;;;;;;;;;;27.97;23.54;100828.75;5070847;28;1188;-24
2023/03/04 09:02:34;;;;;;;;;;;;;;;28.44;23.00;100822.28;5075878;28;1237;-25
2023/03/04 09:05:00;;;;;;;;;;;;;;;28.75;22.57;100821.16;5075178;28;1113;-26
2023/03/04 09:07:26;;;;;;;;;;;;;;;28.92;22.60;100823.59;5076074;28;1906;-25
2023/03/04 09:09:51;;;;;;;;;;;;;;;28.71;22.50;100814.47;5085974;28;1178;-26
2023/03/04 09:12:17;;;;;;;;;;;;;;;27.72;23.76;100812.81;5075367;28;1093;-26
2023/03/04 09:14:42;;;;;;;;;;;;;;;28.57;23.08;100802.63;5075346;28;1114;-26
2023/03/04 09:17:08;;;;;;;;;;;;;;;28.80;22.71;100813.28;5075889;28;1117;-27
2023/03/04 09:19:34;;;;;;;;;;;;;;;28.77;22.42;100810.13;5075128;28;1121;-26
2023/03/04 09:22:00;;;;;;;;;;;;;;;29.08;22.07;100815.25;5089739;28;838;-27
2023/03/04 09:24:26;;;;;;;;;;;;;;;28.88;22.57;100801.47;5057764;28;1217;-26
2023/03/04 09:26:52;;;;;;;;;;;;;;;27.56;24.01;100810.25;5067589;28;1901;-27
2023/03/04 09:29:17;;;;;;;;;;;;;;;28.27;23.25;100784.59;5075546;28;1101;-29
2023/03/04 09:31:43;;;;;;;;;;;;;;;28.25;23.48;100794.75;5075129;28;1070;-27
2023/03/04 09:34:08;;;;;;;;;;;;;;;29.50;22.08;100794.69;5087655;28;1218;-27
2023/03/04 09:36:34;;;;;;;;;;;;;;;28.55;22.78;100791.16;5075515;28;1066;-28
2023/03/04 09:39:00;;;;;;;;;;;;;;;27.72;23.96;100791.19;5075705;28;1061;-26
2023/03/04 09:41:46;;;;;;;;;;;;;;;28.60;22.90;100792.28;5075760;28;1047;-29
2023/03/04 09:44:18;;;;;;;;;;;;;;;28.06;23.63;100779.97;5075284;28;1258;-28
2023/03/04 09:46:43;;;;;;;;;;;;;;;27.93;23.66;100773.34;5089177;28;1959;-26
2023/03/04 09:49:10;;;;;;;;;;;;;;;28.95;22.44;100772.59;5070557;28;1174;-29
2023/03/04 09:51:51;;;;;;;;;;;;;;;29.79;21.85;100761.13;5057676;28;1174;-29
2023/03/04 09:54:32;;;;;;;;;;;;;;;29.69;21.39;100764.22;5058035;28;1050;-26
2023/03/04 09:57:05;;;;;;;;;;;;;;;28.57;23.36;100760.19;5077710;28;1123;-27
2023/03/04 09:59:34;;;;;;;;;;;;;;;29.06;22.33;100759.59;5079361;28;1217;-28
2023/03/04 10:02:00;;;;;;;;;;;;;;;28.52;23.09;100765.34;5074711;28;1138;-29
2023/03/04 10:04:29;;;;;;;;;;;;;;;27.91;23.64;100750.25;5060865;28;1071;-28
2023/03/04 10:06:54;;;;;;;;;;;;;;;28.03;23.65;100756.03;5077676;28;1902;-26
2023/03/04 10:09:22;;;;;;;;;;;;;;;27.90;23.76;100754.81;5067802;28;1137;-30
2023/03/04 10:11:48;;;;;;;;;;;;;;;28.76;23.09;100743.50;5058576;28;1151;-25
2023/03/04 10:14:20;;;;;;;;;;;;;;;28.54;23.36;100748.91;5073842;28;1238;-25
2023/03/04 10:17:12;;;;;;;;;;;;;;;27.45;24.29;100742.13;5078423;28;1106;-26
2023/03/04 10:19:56;;;;;;;;;;;;;;;27.99;24.25;100745.56;5073416;28;1340;-30
2023/03/04 10:22:24;;;;;;;;;;;;;;;27.64;24.41;100737.19;5079334;28;949;-28
2023/03/04 10:24:51;;;;;;;;;;;;;;;27.02;24.76;100732.78;5078939;28;1038;-26
2023/03/04 10:27:18;;;;;;;;;;;;;;;27.56;24.71;100738.09;5089458;28;1976;-25
2023/03/04 10:29:43;;;;;;;;;;;;;;;28.58;23.29;100737.50;5078674;28;1097;-27
2023/03/04 10:32:16;;;;;;;;;;;;;;;28.50;23.09;100729.50;5078524;28;1154;-24
2023/03/04 10:34:41;;;;;;;;;;;;;;;27.13;24.82;100725.22;5061005;28;949;-26
2023/03/04 10:37:07;;;;;;;;;;;;;;;27.84;24.27;100720.44;5073235;28;1118;-25
2023/03/04 10:39:37;;;;;;;;;;;;;;;27.65;24.25;100711.00;5060713;28;1194;-27
2023/03/04 10:42:21;;;;;;;;;;;;;;;26.85;25.39;100713.16;5060563;28;1155;-28
2023/03/04 10:44:51;;;;;;;;;;;;;;;27.24;24.87;100692.38;5079540;28;1138;-25
2023/03/04 10:47:16;;;;;;;;;;;;;;;27.82;24.43;100703.56;5067843;28;1910;-25
2023/03/04 10:49:52;;;;;;;;;;;;;;;27.97;24.06;100693.56;5070013;28;1115;-28
2023/03/04 10:52:22;;;;;;;;;;;;;;;26.96;25.13;100681.34;5078315;28;1154;-26
2023/03/04 10:54:48;;;;;;;;;;;;;;;28.11;24.10;100688.31;5077580;28;1645;-27
2023/03/04 10:57:18;;;;;;;;;;;;;;;27.73;24.44;100682.03;5063814;28;1126;-27
2023/03/04 10:59:49;;;;;;;;;;;;;;;26.83;25.25;100660.34;5078441;28;1081;-29
2023/03/04 11:02:16;;;;;;;;;;;;;;;27.14;25.34;100665.63;5067346;28;985;-27
2023/03/04 11:04:42;;;;;;;;;;;;;;;28.00;23.90;100670.69;5077856;28;1054;-26
2023/03/04 11:07:09;;;;;;;;;;;;;;;27.83;23.78;100661.97;5059637;28;1898;-27
2023/03/04 11:09:34;;;;;;;;;;;;;;;27.05;25.28;100657.81;5080364;28;1119;-30
2023/03/04 11:12:00;;;;;;;;;;;;;;;27.81;24.23;100648.66;5077879;28;1035;-26
2023/03/04 11:14:30;;;;;;;;;;;;;;;27.93;24.00;100640.03;5077743;28;1173;-26
2023/03/04 11:16:56;;;;;;;;;;;;;;;26.73;25.51;100630.94;5059665;28;1062;-27
2023/03/04 11:19:22;;;;;;;;;;;;;;;27.72;24.25;100637.13;5076847;28;1193;-26
2023/03/04 11:21:47;;;;;;;;;;;;;;;27.99;24.00;100636.59;5059523;28;1381;-26
2023/03/04 11:24:24;;;;;;;;;;;;;;;27.26;25.20;100630.06;5059512;28;1126;-28
2023/03/04 11:26:54;;;;;;;;;;;;;;;26.68;26.18;100630.63;5077255;28;1906;-25
2023/03/04 11:29:23;;;;;;;;;;;;;;;27.84;24.65;100623.94;5059321;28;1105;-28
2023/03/04 11:32:09;;;;;;;;;;;;;;;27.27;25.63;100618.25;5077279;28;1022;-28
2023/03/04 11:34:47;;;;;;;;;;;;;;;26.66;26.15;100609.25;5067512;28;1080;-29
2023/03/04 11:37:34;;;;;;;;;;;;;;;27.68;24.83;100608.81;5077045;28;1047;-27
2023/03/04 11:40:06;;;;;;;;;;;;;;;27.71;25.09;100599.50;5059102;28;900;-26
2023/03/04 11:42:43;;;;;;;;;;;;;;;26.69;25.91;100592.72;5063746;28;1039;-30
2023/03/04 11:45:13;;;;;;;;;;;;;;;27.63;25.06;100589.59;5077188;28;1124;-27
2023/03/04 11:47:44;;;;;;;;;;;;;;;28.20;24.78;100600.59;5051336;28;1905;-26
2023/03/04 11:50:19;;;;;;;;;;;;;;;27.10;25.41;100593.31;5023525;28;1162;-26
2023/03/04 11:52:49;;;;;;;;;;;;;;;27.04;25.97;100592.19;5025010;28;1320;-27
2023/03/04 11:55:47;;;;;;;;;;;;;;;28.52;23.75;100596.72;5034157;28;1222;-27
2023/03/04 11:58:12;;;;;;;;;;;;;;;27.17;25.10;100593.38;4987054;28;1560;-31
2023/03/04 12:00:38;;;;;;;;;;;;;;;26.69;26.25;100573.81;5029317;28;1313;-29
2023/03/04 12:03:06;;;;;;;;;;;;;;;28.34;24.33;100579.94;5037150;28;1316;-26
2023/03/04 12:05:50;;;;;;;;;;;;;;;27.54;24.95;100580.78;5036907;28;1503;-26
2023/03/04 12:08:16;;;;;;;;;;;;;;;27.37;25.47;100591.81;5036664;28;1965;-28
2023/03/04 12:10:56;;;;;;;;;;;;;;;27.96;24.30;100585.63;5037104;28;937;-29
2023/03/04 12:13:37;;;;;;;;;;;;;;;27.32;25.15;100585.28;5036184;28;1039;-28
2023/03/04 12:16:15;;;;;;;;;;;;;;;26.78;26.39;100591.59;5035418;28;1068;-29
2023/03/04 12:18:45;;;;;;;;;;;;;;;28.26;24.36;100590.84;5036396;28;1047;-30
2023/03/04 12:21:11;;;;;;;;;;;;;;;27.11;25.20;100587.72;5037414;28;1114;-26
2023/03/04 12:24:11;;;;;;;;;;;;;;;27.52;24.92;100590.94;5038193;28;882;-27
2023/03/04 12:26:38;;;;;;;;;;;;;;;27.56;25.05;100586.00;4956145;28;1989;-26
2023/03/04 12:29:06;;;;;;;;;;;;;;;28.21;24.08;100583.31;5028661;28;1056;-28
2023/03/04 12:31:35;;;;;;;;;;;;;;;28.13;24.04;100585.34;5036334;28;1162;-32
2023/03/04 12:34:06;;;;;;;;;;;;;;;28.43;23.79;100582.50;5036211;28;1031;-29
2023/03/04 12:37:07;;;;;;;;;;;;;;;27.63;24.24;100586.88;5026271;28;1023;-28
2023/03/04 12:39:36;;;;;;;;;;;;;;;28.15;24.13;100583.25;4955843;28;1271;-29
2023/03/04 12:42:09;;;;;;;;;;;;;;;27.26;24.72;100582.31;5015896;28;1052;-27
2023/03/04 12:44:40;;;;;;;;;;;;;;;27.42;25.21;100576.88;5035249;28;1020;-27
2023/03/04 12:47:15;;;;;;;;;;;;;;;28.02;24.46;100575.88;5039929;28;1910;-27